This is the latest recevied weather packets stored in our database for station/object K2ATL. If no packets are shown the sender has not sent any weather packets the latest 10 day(s).
| Time | Temp. | Humidity | Pressure | Rain* | Wind** | Luminosity | Snow |
|---|---|---|---|---|---|---|---|
| 1787672323 | 23.89° C | 65% | 1105.6 hPa | 0 mm | - | 751 W/m² | - |
| 1787672018 | 23.89° C | 66% | 1105.7 hPa | 0 mm | - | 736 W/m² | - |
| 1787671714 | 23.89° C | 63% | 1105.7 hPa | 0 mm | - | 740 W/m² | - |
| 1787671413 | 23.89° C | 62% | 1105.6 hPa | 0 mm | - | 732 W/m² | - |
| 1787671108 | 23.33° C | 61% | 1105.7 hPa | 0 mm | - | 704 W/m² | - |
| 1787670805 | 22.22° C | 68% | 1105.6 hPa | 0 mm | - | 681 W/m² | - |
| 1787670504 | 21.67° C | 70% | 1105.7 hPa | 0 mm | - | 666 W/m² | - |
| 1787670199 | 21.67° C | 66% | 1105.7 hPa | 0 mm | - | 649 W/m² | - |
| 1787669898 | 21.67° C | 67% | 1105.9 hPa | 0 mm | - | 634 W/m² | - |
| 1787669593 | 21.67° C | 68% | 1105.8 hPa | 0 mm | - | 621 W/m² | - |
| 1787669289 | 21.11° C | 69% | 1105.6 hPa | 0 mm | - | 606 W/m² | - |
| 1787668984 | 20.56° C | 69% | 1105.8 hPa | 0 mm | - | 589 W/m² | - |
| 1787668680 | 20° C | 70% | 1105.9 hPa | 0 mm | - | 413 W/m² | - |
| 1787668376 | 21.67° C | 72% | 1105.8 hPa | 0 mm | - | 50 W/m² | - |
| 1787668075 | 21.11° C | 72% | 1105.6 hPa | 0 mm | - | 104 W/m² | - |
| 1787667771 | 21.67° C | 72% | 1105.7 hPa | 0 mm | - | 45 W/m² | - |
| 1787667466 | 21.67° C | 73% | 1105.8 hPa | 0 mm | - | 39 W/m² | - |
| 1787667162 | 21.67° C | 71% | 1105.6 hPa | 0 mm | - | 36 W/m² | - |
| 1787666856 | 21.11° C | 72% | 1105.5 hPa | 0 mm | - | 88 W/m² | - |
| 1787666552 | 20.56° C | 75% | 1105.5 hPa | 0 mm | - | 148 W/m² | - |
| 1787666247 | 21.11° C | 75% | 1105.6 hPa | 0 mm | - | 58 W/m² | - |
| 1787665943 | 21.11° C | 75% | 1105.6 hPa | 0 mm | - | 47 W/m² | - |
| 1787665638 | 21.11° C | 73% | 1105.4 hPa | 0 mm | - | 43 W/m² | - |
| 1787665337 | 21.11° C | 71% | 1105.3 hPa | 0 mm | - | 33 W/m² | - |
| 1787665034 | 20.56° C | 72% | 1105.4 hPa | 0 mm | - | 41 W/m² | - |
* Rain latest hour (hover to see other rain measurements)
** Current wind speed in m/s (hover to see current wind gust speed)